Time;durP1;ratioP1;P1;durP2;ratioP2;P2;SDS_P1;SDS_P2;PMS_P1;PMS_P2;Temp;Humidity;BMP_temperature;BMP_pressure;BME280_temperature;BME280_humidity;BME280_pressure;Samples;Min_cycle;Max_cycle;Signal;HPM_P1;HPM_P2
2022/04/23 00:02:17;;;;;;;22.80;15.50;;;;;;;0.94;73.84;99320.77;212899;1278;141444;-66
2022/04/23 00:07:22;;;;;;;27.10;16.70;;;;;;;0.86;74.20;99321.01;213233;1277;141282;-64
2022/04/23 00:12:26;;;;;;;22.60;16.90;;;;;;;0.88;74.47;99317.77;213101;1277;140380;-63
2022/04/23 00:17:30;;;;;;;23.30;18.20;;;;;;;0.87;74.57;99316.83;213197;1278;142877;-64
2022/04/23 00:22:36;;;;;;;24.20;18.30;;;;;;;0.84;74.67;99304.02;213871;1277;142043;-67
2022/04/23 00:27:39;;;;;;;36.50;20.30;;;;;;;0.77;74.57;99303.00;214194;1278;141208;-65
2022/04/23 00:32:41;;;;;;;31.30;22.40;;;;;;;0.73;74.76;99301.89;212889;1277;141444;-66
2022/04/23 00:37:45;;;;;;;29.80;19.70;;;;;;;0.74;75.07;99295.52;213597;1277;140967;-62
2022/04/23 00:42:53;;;;;;;29.20;20.00;;;;;;;0.76;75.13;99288.94;212989;1277;143069;-63
2022/04/23 00:47:55;;;;;;;28.90;19.90;;;;;;;0.73;75.17;99294.02;212837;1277;141964;-64
2022/04/23 00:53:02;;;;;;;27.30;18.60;;;;;;;0.67;75.09;99290.10;213513;1278;141179;-63
2022/04/23 00:58:04;;;;;;;26.00;19.60;;;;;;;0.61;75.22;99282.92;212704;1279;248887;-65
2022/04/23 01:03:06;;;;;;;24.00;18.10;;;;;;;0.49;75.06;99282.32;213942;1277;140376;-69
2022/04/23 01:08:08;;;;;;;26.80;18.40;;;;;;;0.40;75.03;99284.85;215407;1277;141265;-67
2022/04/23 01:13:14;;;;;;;26.60;20.00;;;;;;;0.39;75.37;99278.26;215750;1278;141696;-69
2022/04/23 01:18:16;;;;;;;24.20;18.40;;;;;;;0.48;75.84;99275.44;215547;1277;142086;-69
2022/04/23 01:23:18;;;;;;;26.00;17.00;;;;;;;0.57;75.78;99276.95;213454;1277;142713;-65
2022/04/23 01:28:22;;;;;;;23.40;16.40;;;;;;;0.60;75.88;99275.34;213171;1279;141516;-64
2022/04/23 01:33:24;;;;;;;22.30;16.70;;;;;;;0.50;75.59;99270.27;214751;1277;140895;-67
2022/04/23 01:38:27;;;;;;;27.90;19.50;;;;;;;0.40;75.78;99262.55;214268;1277;142315;-65
2022/04/23 01:43:29;;;;;;;27.10;18.80;;;;;;;0.36;75.74;99255.96;213857;1278;140768;-63
2022/04/23 01:48:38;;;;;;;21.00;16.40;;;;;;;0.26;75.57;99252.94;214350;1278;141270;-63
2022/04/23 01:53:41;;;;;;;27.20;18.40;;;;;;;0.13;75.68;99246.25;213231;1277;140649;-64
2022/04/23 01:58:43;;;;;;;32.80;22.20;;;;;;;0.09;76.16;99240.26;212723;1278;140645;-63
2022/04/23 02:03:45;;;;;;;28.20;18.80;;;;;;;0.10;76.28;99232.45;213256;1276;141254;-62
2022/04/23 02:08:50;;;;;;;31.90;20.90;;;;;;;0.08;76.49;99230.44;212635;1278;140827;-63
2022/04/23 02:13:54;;;;;;;32.00;20.10;;;;;;;0.09;76.78;99237.02;213033;1278;140611;-64
2022/04/23 02:18:58;;;;;;;27.90;19.30;;;;;;;0.13;77.05;99240.16;213668;1278;221374;-65
2022/04/23 02:24:04;;;;;;;28.10;20.20;;;;;;;0.19;77.05;99231.58;213752;1278;141914;-64
2022/04/23 02:29:06;;;;;;;29.40;19.40;;;;;;;0.18;76.61;99231.84;212818;1279;141129;-65
2022/04/23 02:34:09;;;;;;;29.90;19.40;;;;;;;0.12;76.76;99232.43;213232;1278;142309;-64
2022/04/23 02:39:12;;;;;;;24.70;18.00;;;;;;;0.09;76.68;99237.52;212917;1277;140475;-64
2022/04/23 02:44:15;;;;;;;26.10;20.10;;;;;;;0.08;76.99;99239.38;213051;1277;142177;-64
2022/04/23 02:49:18;;;;;;;23.20;18.00;;;;;;;0.10;76.96;99240.23;213853;1278;142584;-64
2022/04/23 02:54:20;;;;;;;25.90;18.30;;;;;;;0.11;77.05;99238.66;214640;1277;140834;-65
2022/04/23 02:59:22;;;;;;;30.10;19.70;;;;;;;0.17;77.36;99233.11;214548;1277;142747;-65
2022/04/23 03:04:25;;;;;;;30.10;20.30;;;;;;;0.23;77.15;99226.59;215415;1277;140644;-62
2022/04/23 03:09:26;;;;;;;30.00;18.60;;;;;;;0.27;77.21;99217.70;215617;1277;141215;-65
2022/04/23 03:14:28;;;;;;;32.80;20.70;;;;;;;0.30;77.37;99217.06;215514;1276;141937;-68
2022/04/23 03:19:31;;;;;;;32.80;21.70;;;;;;;0.30;77.04;99210.55;215168;1278;141805;-64
2022/04/23 03:24:33;;;;;;;30.80;21.00;;;;;;;0.21;76.72;99204.60;213756;1279;143111;-65
2022/04/23 03:29:36;;;;;;;27.10;18.40;;;;;;;0.20;77.09;99211.92;214101;1278;141118;-61
2022/04/23 03:34:38;;;;;;;31.30;19.40;;;;;;;0.18;77.03;99209.90;214088;1277;141743;-61
2022/04/23 03:39:41;;;;;;;29.90;18.70;;;;;;;0.10;76.94;99215.95;213031;1278;143040;-61
2022/04/23 03:44:44;;;;;;;30.60;21.60;;;;;;;0.12;77.02;99214.38;212982;1277;142163;-61
2022/04/23 03:49:47;;;;;;;29.00;19.90;;;;;;;0.34;77.25;99213.05;213498;1278;141459;-61
2022/04/23 03:54:49;;;;;;;29.20;20.50;;;;;;;0.69;77.13;99212.81;213112;1278;142357;-60
2022/04/23 03:59:50;;;;;;;24.20;17.20;;;;;;;1.35;76.60;99213.38;212935;1279;141977;-61
2022/04/23 04:04:54;;;;;;;25.40;19.10;;;;;;;1.61;75.78;99210.79;212802;1278;141058;-60
2022/04/23 04:10:00;;;;;;;23.80;15.70;;;;;;;1.42;75.31;99210.55;213061;1277;141360;-62
2022/04/23 04:15:03;;;;;;;23.90;15.80;;;;;;;1.25;75.46;99212.97;213881;1277;141243;-61
2022/04/23 04:20:13;;;;;;;27.50;17.10;;;;;;;1.13;75.64;99213.02;213642;1277;140430;-62
2022/04/23 04:25:17;;;;;;;29.60;20.80;;;;;;;1.09;75.86;99208.16;213114;1278;142938;-61
2022/04/23 04:30:19;;;;;;;30.90;17.50;;;;;;;1.25;75.91;99201.16;213023;1277;151548;-66
2022/04/23 04:35:25;;;;;;;27.00;18.80;;;;;;;1.45;76.23;99201.44;213224;1278;141685;-64
2022/04/23 04:40:27;;;;;;;27.70;18.70;;;;;;;1.63;76.53;99200.08;213084;1276;141610;-62
2022/04/23 04:45:29;;;;;;;30.10;18.40;;;;;;;1.78;76.59;99196.00;212880;1278;141692;-63
2022/04/23 04:50:31;;;;;;;29.70;21.10;;;;;;;1.95;76.91;99196.80;213874;1278;141682;-63
2022/04/23 04:55:34;;;;;;;29.70;20.60;;;;;;;2.19;77.38;99199.63;214808;1278;141270;-62
2022/04/23 05:00:36;;;;;;;32.60;21.80;;;;;;;2.45;77.33;99204.48;212872;1277;141486;-62
2022/04/23 05:05:40;;;;;;;33.00;22.30;;;;;;;2.69;77.96;99205.60;215744;1277;141017;-63
2022/04/23 05:10:41;;;;;;;28.00;20.60;;;;;;;2.98;78.00;99198.77;213004;1278;142650;-62
2022/04/23 05:15:45;;;;;;;30.50;20.80;;;;;;;3.28;78.03;99198.05;214996;1277;141755;-62
2022/04/23 05:20:48;;;;;;;31.30;20.60;;;;;;;3.59;78.05;99195.69;214580;1277;142699;-65
2022/04/23 05:25:51;;;;;;;40.40;25.40;;;;;;;3.95;78.04;99204.79;213188;1277;145992;-65
2022/04/23 05:30:53;;;;;;;32.00;21.60;;;;;;;4.91;77.01;99201.29;213302;1277;141507;-67
2022/04/23 05:35:57;;;;;;;29.50;20.20;;;;;;;6.21;76.53;99195.73;215041;1277;141014;-63
2022/04/23 05:41:00;;;;;;;24.80;19.00;;;;;;;6.76;76.05;99191.45;214408;1277;142569;-66
2022/04/23 05:46:03;;;;;;;28.70;19.20;;;;;;;6.90;75.76;99191.52;213280;1276;142560;-63
2022/04/23 05:51:07;;;;;;;27.20;20.20;;;;;;;7.07;75.48;99193.41;215214;1277;140951;-65
2022/04/23 05:56:10;;;;;;;24.70;17.20;;;;;;;7.19;74.94;99201.16;213718;1277;163209;-65
2022/04/23 06:01:14;;;;;;;20.60;16.00;;;;;;;7.26;75.11;99201.81;213876;1277;140990;-64
2022/04/23 06:06:19;;;;;;;24.80;17.30;;;;;;;7.43;74.90;99201.38;213987;1277;140622;-66
2022/04/23 06:11:22;;;;;;;27.20;17.90;;;;;;;7.67;74.46;99206.98;212731;1277;141896;-64
2022/04/23 06:16:25;;;;;;;24.00;16.90;;;;;;;7.99;73.98;99210.96;213275;1277;140947;-65
2022/04/23 06:21:28;;;;;;;20.70;15.70;;;;;;;8.25;73.71;99203.15;213274;1277;140925;-64
2022/04/23 06:26:31;;;;;;;26.80;17.20;;;;;;;8.35;73.28;99204.20;213231;1277;140781;-64
2022/04/23 06:31:37;;;;;;;25.90;17.20;;;;;;;8.44;72.54;99198.65;212982;1277;140634;-66
2022/04/23 06:36:41;;;;;;;20.40;17.40;;;;;;;8.62;72.94;99203.33;213444;1277;141580;-65
2022/04/23 06:41:45;;;;;;;19.30;14.90;;;;;;;9.01;72.42;99204.80;214144;1277;141126;-67
2022/04/23 06:46:47;;;;;;;18.70;13.90;;;;;;;9.63;71.84;99203.70;214292;1277;141147;-66
2022/04/23 06:51:51;;;;;;;21.10;15.70;;;;;;;10.47;71.21;99197.09;213166;1277;140806;-65
2022/04/23 06:56:54;;;;;;;19.70;15.30;;;;;;;11.18;70.37;99198.70;214690;1277;141012;-67
2022/04/23 07:02:02;;;;;;;19.90;13.90;;;;;;;12.05;69.48;99200.50;214681;1277;139924;-66
2022/04/23 07:07:05;;;;;;;18.00;15.00;;;;;;;13.14;67.67;99199.99;215788;1277;140470;-71
2022/04/23 07:12:09;;;;;;;17.30;15.60;;;;;;;13.74;66.21;99206.62;215859;1277;140431;-68
2022/04/23 07:17:13;;;;;;;16.00;13.10;;;;;;;13.55;65.13;99206.35;214721;1277;140573;-66
2022/04/23 07:22:16;;;;;;;14.60;11.50;;;;;;;13.83;65.46;99199.07;213207;1277;140978;-65
2022/04/23 07:27:18;;;;;;;13.90;11.70;;;;;;;14.20;64.14;99200.80;213487;1277;207739;-65
2022/04/23 07:41:43;;;;;;;12.20;10.90;;;;;;;13.72;62.58;99202.34;211822;1288;139563;-66
2022/04/23 07:46:46;;;;;;;11.50;10.10;;;;;;;13.56;62.60;99198.31;210138;1286;699594;-65
2022/04/23 07:51:49;;;;;;;13.40;10.70;;;;;;;13.73;63.01;99189.33;212859;1286;139097;-70
2022/04/23 07:56:51;;;;;;;10.90;10.00;;;;;;;14.11;62.78;99190.35;210997;1287;139846;-65
2022/04/23 08:01:56;;;;;;;12.80;10.50;;;;;;;14.36;62.23;99189.49;211602;1286;141120;-76
2022/04/23 08:06:58;;;;;;;13.20;11.50;;;;;;;14.52;62.05;99189.63;212804;1279;139891;-70
2022/04/23 08:12:02;;;;;;;10.70;9.60;;;;;;;14.81;61.73;99188.65;213567;1280;140912;-69
2022/04/23 08:17:06;;;;;;;10.10;9.20;;;;;;;14.89;60.34;99188.09;213056;1279;221522;-73
2022/04/23 08:22:09;;;;;;;9.80;8.50;;;;;;;14.89;59.90;99180.67;213000;1279;141203;-71
2022/04/23 08:27:12;;;;;;;14.40;10.20;;;;;;;15.17;59.72;99183.16;213753;1280;139200;-77
2022/04/23 08:32:15;;;;;;;11.60;9.80;;;;;;;15.28;59.38;99174.42;212999;1279;140228;-73
2022/04/23 08:37:18;;;;;;;9.60;8.70;;;;;;;15.44;59.25;99172.02;213617;1280;140015;-77
2022/04/23 08:42:20;;;;;;;9.60;8.10;;;;;;;15.45;59.04;99165.61;214293;1279;139605;-77
2022/04/23 08:47:24;;;;;;;10.70;9.60;;;;;;;15.42;58.34;99163.05;213792;1278;139136;-80
2022/04/23 08:52:34;;;;;;;10.20;9.30;;;;;;;15.47;58.46;99157.00;213182;1279;141605;-75
2022/04/23 08:57:37;;;;;;;9.70;8.70;;;;;;;15.56;58.38;99155.13;213483;1276;140903;-78
2022/04/23 09:02:42;;;;;;;10.60;9.60;;;;;;;15.61;58.10;99143.95;215232;1275;139441;-75
2022/04/23 09:07:54;;;;;;;9.60;8.60;;;;;;;15.63;57.34;99143.79;213490;1276;140529;-73
2022/04/23 09:12:58;;;;;;;8.40;7.70;;;;;;;15.50;57.00;99144.30;215916;1275;138718;-75
2022/04/23 09:23:43;;;;;;;9.40;8.30;;;;;;;15.61;56.22;99145.63;216100;1275;140020;-69
2022/04/23 09:28:46;;;;;;;8.90;8.20;;;;;;;15.54;56.24;99144.07;214890;1274;138875;-71
2022/04/23 09:33:51;;;;;;;8.80;7.50;;;;;;;15.68;56.09;99134.98;214866;1276;138636;-70
2022/04/23 09:39:02;;;;;;;9.80;8.90;;;;;;;15.52;55.42;99133.08;214058;1276;139307;-65
2022/04/23 09:44:07;;;;;;;9.00;8.00;;;;;;;15.49;55.97;99130.45;214761;1275;139636;-72
2022/04/23 09:49:12;;;;;;;9.90;8.90;;;;;;;15.68;55.94;99133.31;214507;1275;139171;-70
2022/04/23 09:54:16;;;;;;;7.90;7.20;;;;;;;15.71;55.71;99130.02;214625;1275;139014;-71
2022/04/23 09:59:18;;;;;;;8.80;7.90;;;;;;;15.79;55.46;99125.92;213188;1274;139426;-77
2022/04/23 10:04:27;;;;;;;8.20;7.50;;;;;;;15.92;55.03;99125.61;214639;1275;139173;-70
2022/04/23 10:09:38;;;;;;;7.30;6.70;;;;;;;15.57;54.62;99128.73;213924;1275;139178;-71
2022/04/23 10:14:49;;;;;;;8.30;7.60;;;;;;;15.18;54.84;99130.63;213206;1276;139113;-71
2022/04/23 10:19:54;;;;;;;9.40;6.20;;;;;;;15.17;55.30;99129.30;213836;1276;138863;-73
2022/04/23 10:25:07;;;;;;;7.20;6.50;;;;;;;15.41;55.26;99129.11;213413;1274;138912;-73
2022/04/23 10:30:10;;;;;;;8.60;7.80;;;;;;;15.31;54.77;99131.55;213668;1274;139316;-72
2022/04/23 10:35:19;;;;;;;7.40;6.80;;;;;;;15.47;55.28;99131.60;213961;1275;140579;-72
2022/04/23 10:40:25;;;;;;;8.50;7.80;;;;;;;15.72;54.72;99131.45;213134;1276;140027;-72
2022/04/23 10:45:35;;;;;;;7.50;6.30;;;;;;;15.89;54.83;99124.41;213030;1276;139340;-72
2022/04/23 10:50:38;;;;;;;7.60;6.90;;;;;;;15.88;54.09;99116.31;213724;1274;139389;-71
2022/04/23 10:56:10;;;;;;;7.00;6.30;;;;;;;15.66;53.88;99114.84;213283;1276;139888;-73
2022/04/23 11:01:30;;;;;;;7.80;6.40;;;;;;;15.57;53.88;99110.52;214655;1276;139188;-73
2022/04/23 11:12:50;;;;;;;7.80;7.20;;;;;;;16.10;52.92;99111.94;214942;1275;140334;-73
2022/04/23 11:17:53;;;;;;;10.20;7.60;;;;;;;16.11;53.13;99114.39;214858;1276;138694;-73
2022/04/23 11:22:59;;;;;;;8.40;7.30;;;;;;;16.40;53.03;99112.17;216165;1276;140488;-73
2022/04/23 11:28:16;;;;;;;8.60;7.00;;;;;;;16.82;52.80;99116.83;215769;1275;139596;-73
2022/04/23 11:33:20;;;;;;;7.80;7.00;;;;;;;16.67;51.39;99111.52;215255;1276;140039;-73
2022/04/23 11:38:27;;;;;;;7.60;6.90;;;;;;;16.66;51.38;99113.59;214274;1276;140592;-73
2022/04/23 11:43:34;;;;;;;6.80;6.20;;;;;;;16.89;51.27;99109.52;213484;1276;139961;-73
2022/04/23 11:48:46;;;;;;;8.20;7.50;;;;;;;16.86;50.77;99101.86;215146;1273;140444;-72
2022/04/23 11:53:58;;;;;;;10.20;8.70;;;;;;;16.53;50.72;99103.84;213889;1275;140704;-74
2022/04/23 11:59:11;;;;;;;9.10;8.40;;;;;;;16.35;50.88;99095.73;213613;1276;140111;-72
2022/04/23 12:04:15;;;;;;;8.30;7.60;;;;;;;16.67;51.13;99093.48;214374;1276;140056;-73
2022/04/23 12:09:18;;;;;;;9.40;8.50;;;;;;;16.84;50.96;99092.73;213895;1274;138569;-73
2022/04/23 12:14:22;;;;;;;10.10;7.60;;;;;;;16.68;50.71;99089.61;213809;1274;139240;-72
2022/04/23 12:19:32;;;;;;;13.40;9.00;;;;;;;16.48;50.78;99087.59;214066;1275;141525;-72
2022/04/23 12:24:36;;;;;;;8.20;7.30;;;;;;;16.23;50.95;99076.98;213351;1274;140959;-72
2022/04/23 12:40:46;;;;;;;7.80;7.10;;;;;;;16.45;50.89;99062.88;213355;1275;140412;-72
2022/04/23 12:45:51;;;;;;;13.40;6.60;;;;;;;16.71;50.63;99057.18;214551;1274;141137;-74
2022/04/23 12:51:08;;;;;;;8.90;8.00;;;;;;;16.77;50.50;99059.73;213192;1276;140624;-74
2022/04/23 12:56:11;;;;;;;9.60;7.50;;;;;;;17.06;50.20;99058.80;214083;1274;140581;-74
2022/04/23 13:01:14;;;;;;;6.00;5.60;;;;;;;17.00;50.02;99059.17;213671;1276;139999;-74
2022/04/23 13:11:40;;;;;;;6.30;5.80;;;;;;;16.70;49.89;99052.58;215396;1274;139945;-75
2022/04/23 13:16:44;;;;;;;5.50;5.10;;;;;;;16.58;49.27;99050.98;215023;1274;138991;-74
2022/04/23 13:21:53;;;;;;;5.80;4.80;;;;;;;16.30;48.25;99050.98;214846;1275;139813;-75
2022/04/23 13:26:55;;;;;;;6.30;5.60;;;;;;;16.06;48.38;99053.64;215224;1274;138603;-74
2022/04/23 13:31:58;;;;;;;5.90;5.30;;;;;;;15.96;48.39;99048.52;215508;1275;139449;-73
2022/04/23 13:37:02;;;;;;;7.40;4.70;;;;;;;15.96;48.37;99047.62;215840;1274;139754;-73
2022/04/23 13:42:06;;;;;;;5.90;5.50;;;;;;;15.98;48.38;99052.97;214137;1276;139388;-74
2022/04/23 13:47:13;;;;;;;6.00;5.60;;;;;;;16.07;48.57;99050.18;215259;1276;140191;-73
2022/04/23 13:52:15;;;;;;;4.80;4.50;;;;;;;16.43;48.57;99042.20;215096;1274;138727;-73
2022/04/23 13:57:18;;;;;;;6.90;5.70;;;;;;;16.66;48.04;99034.65;213370;1274;139470;-66
2022/04/23 14:13:04;;;;;;;4.70;4.20;;;;;;;16.30;47.24;99033.98;213814;1274;139071;-73
2022/04/23 14:18:07;;;;;;;8.50;5.30;;;;;;;15.89;46.79;99045.02;214272;1274;139314;-75
2022/04/23 14:23:09;;;;;;;5.70;5.30;;;;;;;15.27;47.31;99055.05;213367;1275;139552;-76
2022/04/23 14:28:11;;;;;;;9.50;5.70;;;;;;;14.84;48.05;99054.05;213079;1275;140944;-66
2022/04/23 14:33:14;;;;;;;6.50;5.90;;;;;;;14.51;48.76;99054.58;215211;1274;139550;-74
2022/04/23 14:38:16;;;;;;;6.00;5.50;;;;;;;14.22;49.30;99055.06;214134;1276;140674;-67
2022/04/23 14:43:19;;;;;;;5.40;5.00;;;;;;;14.02;49.93;99051.29;213814;1277;142802;-75
2022/04/23 14:48:22;;;;;;;6.90;5.40;;;;;;;13.93;50.43;99049.08;214069;1275;140416;-74
2022/04/23 14:53:25;;;;;;;5.40;5.00;;;;;;;13.93;51.04;99047.52;213821;1274;139491;-74
2022/04/23 14:58:28;;;;;;;7.10;5.50;;;;;;;14.02;51.42;99045.61;214243;1274;140323;-73
2022/04/23 15:03:31;;;;;;;6.60;6.00;;;;;;;14.21;51.63;99042.95;214146;1275;141045;-72
2022/04/23 15:08:33;;;;;;;6.50;5.80;;;;;;;14.50;51.54;99035.02;214658;1274;140761;-73
2022/04/23 15:13:36;;;;;;;5.20;4.80;;;;;;;14.67;51.05;99031.36;214656;1274;140542;-73
2022/04/23 15:18:39;;;;;;;4.70;4.20;;;;;;;14.73;50.70;99027.29;214001;1274;141068;-74
2022/04/23 15:23:46;;;;;;;5.60;5.10;;;;;;;14.78;50.54;99022.69;214044;1274;140011;-72
2022/04/23 15:28:49;;;;;;;7.20;4.50;;;;;;;14.83;50.50;99024.33;214205;1274;142249;-74
2022/04/23 15:33:52;;;;;;;6.00;5.50;;;;;;;14.78;49.88;99028.65;213561;1274;139882;-73
2022/04/23 15:38:57;;;;;;;4.60;4.20;;;;;;;14.67;50.02;99029.75;215511;1276;140528;-74
2022/04/23 15:43:59;;;;;;;5.80;5.30;;;;;;;14.62;49.90;99033.98;214688;1274;140196;-73
2022/04/23 15:49:01;;;;;;;7.20;4.80;;;;;;;14.58;50.33;99031.48;214123;1274;141707;-73
2022/04/23 15:54:03;;;;;;;5.30;4.80;;;;;;;14.48;50.03;99025.52;215482;1274;141318;-73
2022/04/23 15:59:06;;;;;;;5.20;4.70;;;;;;;14.44;50.31;99028.02;213649;1274;140289;-72
2022/04/23 16:04:09;;;;;;;6.60;5.30;;;;;;;14.51;50.48;99021.65;213777;1274;141653;-73
2022/04/23 16:09:12;;;;;;;7.20;5.00;;;;;;;14.62;50.29;99018.10;214388;1274;139996;-74
2022/04/23 16:14:16;;;;;;;5.70;5.00;;;;;;;14.63;50.31;99019.17;214054;1274;141624;-75
2022/04/23 16:19:39;;;;;;;5.80;5.30;;;;;;;14.55;50.11;99016.42;213511;1274;139646;-73
2022/04/23 16:24:43;;;;;;;6.10;5.60;;;;;;;14.45;50.16;99013.15;213914;1274;139826;-73
2022/04/23 16:29:47;;;;;;;4.90;4.40;;;;;;;14.38;50.26;99006.69;214076;1274;139160;-68
2022/04/23 16:34:51;;;;;;;10.20;5.70;;;;;;;14.29;50.18;99004.05;214521;1274;139112;-72
2022/04/23 16:50:49;;;;;;;6.60;4.70;;;;;;;13.95;50.80;98995.31;213675;1274;139430;-72
2022/04/23 16:55:52;;;;;;;5.80;4.90;;;;;;;13.83;50.61;98990.10;214216;1274;140212;-73
2022/04/23 17:00:55;;;;;;;7.00;5.20;;;;;;;13.73;50.68;98993.69;213322;1274;139907;-73
2022/04/23 17:05:57;;;;;;;5.80;4.70;;;;;;;13.62;50.91;98989.87;214788;1274;141713;-72
2022/04/23 17:11:00;;;;;;;5.90;5.30;;;;;;;13.46;50.94;98991.18;214285;1275;139590;-73
2022/04/23 17:16:02;;;;;;;5.90;5.40;;;;;;;13.32;51.15;98990.95;214487;1274;139620;-72
2022/04/23 17:21:10;;;;;;;5.20;4.80;;;;;;;13.15;51.44;98994.23;214930;1276;139286;-72
2022/04/23 17:26:14;;;;;;;5.60;5.10;;;;;;;12.94;51.40;98998.66;214296;1274;139331;-73
2022/04/23 17:31:17;;;;;;;5.20;4.70;;;;;;;12.75;51.90;99003.42;215499;1274;139902;-73
2022/04/23 17:36:20;;;;;;;8.40;5.30;;;;;;;12.55;52.38;99004.30;216008;1274;140105;-73
2022/04/23 17:41:23;;;;;;;5.10;4.70;;;;;;;12.33;52.82;99001.95;214705;1274;139557;-74
2022/04/23 17:46:26;;;;;;;8.50;5.20;;;;;;;12.12;53.15;98998.48;216070;1274;138934;-74
2022/04/23 17:51:28;;;;;;;7.20;5.10;;;;;;;11.86;53.89;99000.09;214461;1276;140375;-68
2022/04/23 17:56:31;;;;;;;6.60;4.60;;;;;;;11.60;54.29;99003.38;214534;1274;140202;-74
2022/04/23 18:12:15;;;;;;;8.30;6.40;;;;;;;10.77;56.25;99016.75;214130;1276;139134;-73
2022/04/23 18:17:20;;;;;;;6.10;5.40;;;;;;;10.51;56.46;99016.78;213241;1274;139558;-72
2022/04/23 18:22:23;;;;;;;10.60;7.00;;;;;;;10.26;56.86;99025.62;214243;1274;139895;-65
2022/04/23 18:27:25;;;;;;;11.90;6.40;;;;;;;10.04;57.23;99024.96;214447;1274;139681;-73
2022/04/23 18:32:29;;;;;;;6.70;6.00;;;;;;;9.83;57.46;99030.24;214531;1274;139511;-71
2022/04/23 18:37:31;;;;;;;11.40;7.80;;;;;;;9.59;58.02;99035.77;214284;1274;139173;-71
2022/04/23 18:42:34;;;;;;;10.70;9.70;;;;;;;9.35;58.47;99037.37;213874;1274;164805;-72
2022/04/23 18:47:39;;;;;;;12.70;8.70;;;;;;;9.12;59.11;99042.48;214511;1274;141794;-71
2022/04/23 18:52:45;;;;;;;8.60;7.30;;;;;;;8.90;59.69;99036.48;214128;1274;140198;-71
2022/04/23 18:57:48;;;;;;;11.10;8.80;;;;;;;8.72;59.93;99035.27;214022;1274;140089;-71
2022/04/23 19:02:51;;;;;;;9.40;7.60;;;;;;;8.55;60.61;99037.10;214310;1274;164930;-72
2022/04/23 19:07:55;;;;;;;11.60;9.40;;;;;;;8.40;60.68;99037.41;213484;1276;139606;-69
2022/04/23 19:12:57;;;;;;;9.80;8.80;;;;;;;8.23;61.49;99037.33;213324;1274;139727;-65
2022/04/23 19:18:01;;;;;;;9.60;8.60;;;;;;;8.01;61.71;99044.54;214279;1274;149685;-71
2022/04/23 19:28:29;;;;;;;13.90;12.10;;;;;;;7.44;62.21;99047.15;214303;1274;149298;-68
2022/04/23 19:33:33;;;;;;;12.70;10.70;;;;;;;7.36;62.61;99050.83;216062;1274;140779;-67
2022/04/23 19:38:36;;;;;;;10.00;8.70;;;;;;;7.32;62.96;99050.58;216113;1274;141432;-70
2022/04/23 19:43:39;;;;;;;9.60;8.60;;;;;;;7.24;63.23;99048.49;215938;1275;139739;-71
2022/04/23 19:48:42;;;;;;;7.70;7.10;;;;;;;7.13;63.46;99052.52;215501;1274;676629;-71
2022/04/23 19:53:45;;;;;;;12.30;8.40;;;;;;;7.04;63.73;99054.30;214424;1274;141491;-68
2022/04/23 19:58:48;;;;;;;17.60;10.40;;;;;;;6.94;63.98;99056.52;214582;1274;140407;-68
2022/04/23 20:03:51;;;;;;;11.00;9.50;;;;;;;6.86;64.37;99053.65;214966;1274;142638;-69
2022/04/23 20:08:53;;;;;;;16.40;12.00;;;;;;;6.77;64.74;99056.23;214175;1273;140372;-70
2022/04/23 20:13:55;;;;;;;12.20;10.50;;;;;;;6.66;64.60;99055.02;213557;1273;139970;-70
2022/04/23 20:18:58;;;;;;;13.70;10.50;;;;;;;6.56;65.12;99053.20;213966;1273;140284;-66
2022/04/23 20:24:01;;;;;;;35.80;21.20;;;;;;;6.48;65.66;99048.81;213637;1273;140672;-69
2022/04/23 20:29:07;;;;;;;17.50;12.00;;;;;;;6.41;65.92;99044.73;214381;1273;140401;-68
2022/04/23 20:34:11;;;;;;;28.00;18.90;;;;;;;6.21;65.42;99039.57;213367;1273;140026;-68
2022/04/23 20:39:37;;;;;;;18.60;12.30;;;;;;;5.99;66.04;99038.23;213201;1273;139897;-70
2022/04/23 20:44:40;;;;;;;15.50;13.90;;;;;;;5.75;66.11;99037.73;213198;1273;140924;-67
2022/04/23 20:49:43;;;;;;;26.50;19.00;;;;;;;5.59;66.34;99033.87;213015;1273;140602;-67
2022/04/23 20:54:48;;;;;;;20.30;12.20;;;;;;;5.49;66.87;99033.98;214674;1274;139964;-68
2022/04/23 20:59:50;;;;;;;24.70;16.40;;;;;;;5.35;66.87;99032.16;213963;1274;139861;-64
2022/04/23 21:04:52;;;;;;;23.30;14.80;;;;;;;5.28;67.27;99034.34;213441;1274;140831;-65
2022/04/23 21:09:54;;;;;;;32.10;21.20;;;;;;;5.16;67.65;99030.35;213314;1274;141328;-65
2022/04/23 21:14:56;;;;;;;32.50;21.10;;;;;;;5.12;67.99;99035.39;215348;1272;141230;-66
2022/04/23 21:19:58;;;;;;;32.20;19.10;;;;;;;5.01;68.03;99032.34;214793;1274;139873;-66
2022/04/23 21:25:02;;;;;;;26.60;18.50;;;;;;;4.88;68.41;99038.34;215773;1274;140807;-69
2022/04/23 21:30:06;;;;;;;29.40;18.60;;;;;;;4.74;68.39;99038.89;215395;1274;140540;-66
2022/04/23 21:35:10;;;;;;;47.90;24.90;;;;;;;4.69;69.01;99035.42;215348;1274;141035;-67
2022/04/23 21:40:17;;;;;;;36.40;22.00;;;;;;;4.71;69.07;99033.86;216119;1274;140656;-74
2022/04/23 21:45:20;;;;;;;28.70;19.10;;;;;;;4.67;69.07;99032.14;215951;1273;140448;-68
2022/04/23 21:50:23;;;;;;;40.70;25.10;;;;;;;4.66;69.18;99021.50;215577;1274;139889;-67
2022/04/23 21:55:25;;;;;;;31.30;22.20;;;;;;;4.65;69.29;99019.98;214876;1274;140369;-71
2022/04/23 22:00:35;;;;;;;27.20;18.40;;;;;;;4.48;69.14;99022.17;215543;1274;140698;-68
2022/04/23 22:05:40;;;;;;;35.30;20.10;;;;;;;4.31;69.32;99020.89;215637;1274;140313;-69
2022/04/23 22:10:44;;;;;;;39.80;25.10;;;;;;;4.15;69.43;99020.33;214705;1274;141134;-68
2022/04/23 22:15:46;;;;;;;27.80;16.50;;;;;;;4.03;69.71;99021.14;214274;1274;140617;-69
2022/04/23 22:20:48;;;;;;;31.90;21.70;;;;;;;3.93;69.99;99022.02;214551;1274;139865;-71
2022/04/23 22:25:52;;;;;;;28.40;19.00;;;;;;;3.93;70.41;99026.48;213464;1273;140974;-66
2022/04/23 22:30:55;;;;;;;28.40;17.20;;;;;;;3.86;70.36;99027.02;213913;1273;141528;-65
2022/04/23 22:35:58;;;;;;;32.30;20.50;;;;;;;3.77;70.60;99022.34;213642;1274;141175;-66
2022/04/23 22:41:02;;;;;;;34.70;22.20;;;;;;;3.71;70.59;99021.83;213217;1276;142109;-67
2022/04/23 22:46:04;;;;;;;39.10;21.50;;;;;;;3.61;70.64;99017.02;213704;1273;140889;-67
2022/04/23 22:51:07;;;;;;;27.20;17.90;;;;;;;3.47;70.70;99016.34;213297;1276;142206;-65
2022/04/23 22:56:09;;;;;;;29.80;18.10;;;;;;;3.32;70.81;99019.01;214132;1273;141033;-67
2022/04/23 23:01:12;;;;;;;34.50;19.80;;;;;;;3.23;71.04;99023.12;213238;1274;141056;-65
2022/04/23 23:06:19;;;;;;;33.90;20.40;;;;;;;3.16;71.18;99026.04;214104;1274;140228;-65
2022/04/23 23:11:21;;;;;;;28.60;18.90;;;;;;;3.05;71.45;99024.64;213757;1274;139536;-67
2022/04/23 23:16:24;;;;;;;30.10;18.80;;;;;;;2.97;71.63;99023.48;214690;1273;140178;-66
2022/04/23 23:21:27;;;;;;;29.60;16.40;;;;;;;2.85;71.36;99026.90;214814;1273;140143;-70
2022/04/23 23:26:29;;;;;;;24.60;14.90;;;;;;;2.72;71.69;99027.48;215265;1274;139759;-69
2022/04/23 23:31:32;;;;;;;29.30;17.50;;;;;;;2.67;71.94;99024.60;214470;1274;139823;-66
2022/04/23 23:36:34;;;;;;;30.00;17.00;;;;;;;2.67;72.34;99025.85;215814;1274;140632;-69
2022/04/23 23:41:37;;;;;;;32.90;18.60;;;;;;;2.62;72.00;99026.69;216026;1274;140779;-65
2022/04/23 23:46:40;;;;;;;28.50;19.60;;;;;;;2.60;72.21;99024.09;215204;1274;140472;-66
2022/04/23 23:51:42;;;;;;;22.40;17.50;;;;;;;2.63;72.55;99023.05;215817;1275;140585;-66
2022/04/23 23:56:44;;;;;;;23.90;17.00;;;;;;;2.67;72.55;99019.83;214643;1274;141626;-66
